Terminal Aerodrome Forecast
Issued by NWS

Home | Current Version | Previous Version | Text Only | Print | Product List | Glossary On
Versions: 1 2 3 4 5 6 7 8 9 10 11 12 13 14 15 16 17 18 19 20
000
FTUS43 KUNR 010500
TAFGCC
TAF
KGCC 010520Z 0106/0206 VRB05KT P6SM BKN060
      TEMPO 0106/0108 4SM -SN BKN040
     FM011500 31013KT P6SM BKN035=

USA.gov is the U.S. government's official web portal to all federal, state and local government web resources and services.